Time;durP1;ratioP1;P1;durP2;ratioP2;P2;SDS_P1;SDS_P2;PMS_P1;PMS_P2;Temp;Humidity;BMP_temperature;BMP_pressure;BME280_temperature;BME280_humidity;BME280_pressure;Samples;Min_cycle;Max_cycle;Signal;HPM_P1;HPM_P2
2023/12/10 00:00:17;;;;;;;22.80;12.27;;;;;;;-144.30;99.80;86843.97;5112846;28;20218;-62
2023/12/10 00:02:44;;;;;;;21.57;12.03;;;;;;;-144.30;99.78;86859.88;5113250;28;20706;-62
2023/12/10 00:05:12;;;;;;;18.30;10.80;;;;;;;-144.30;99.19;86873.78;5113121;28;20352;-62
2023/12/10 00:07:39;;;;;;;19.07;11.50;;;;;;;-144.30;99.47;86907.59;5113154;28;20279;-61
2023/12/10 00:10:07;;;;;;;21.43;11.53;;;;;;;-144.30;99.16;86871.81;5112831;28;20667;-62
2023/12/10 00:12:34;;;;;;;24.80;12.63;;;;;;;-144.30;99.78;86879.75;5113064;27;20233;-61
2023/12/10 00:15:01;;;;;;;17.90;10.07;;;;;;;-144.30;99.37;86855.88;5112793;28;20209;-62
2023/12/10 00:17:28;;;;;;;21.83;10.67;;;;;;;-144.30;99.53;86832.03;5112493;28;20636;-62
2023/12/10 00:19:55;;;;;;;22.30;11.20;;;;;;;-144.30;99.88;86891.69;5112037;28;20253;-61
2023/12/10 00:22:24;;;;;;;21.03;11.43;;;;;;;-144.30;99.64;86873.78;5112132;28;20191;-61
2023/12/10 00:24:51;;;;;;;23.23;11.40;;;;;;;-144.30;99.68;86836.00;5112424;28;20243;-63
2023/12/10 00:27:18;;;;;;;26.53;13.00;;;;;;;-144.30;99.69;86863.84;5112528;28;20191;-54
2023/12/10 00:29:45;;;;;;;21.43;11.30;;;;;;;-144.30;99.58;86859.88;5112720;27;20193;-54
2023/12/10 00:32:12;;;;;;;23.73;12.77;;;;;;;-144.30;99.91;86907.59;5112558;28;20220;-55
2023/12/10 00:34:39;;;;;;;18.13;9.87;;;;;;;-144.30;100.00;86865.84;5112433;28;20255;-54
2023/12/10 00:37:06;;;;;;;29.37;11.57;;;;;;;-144.30;99.96;86851.91;5112405;28;20269;-53
2023/12/10 00:39:35;;;;;;;21.40;11.57;;;;;;;-144.30;100.00;86901.63;5112225;28;20698;-54
2023/12/10 00:42:03;;;;;;;19.73;12.23;;;;;;;-144.30;100.00;86895.66;5111925;28;20801;-53
2023/12/10 00:44:30;;;;;;;24.50;12.97;;;;;;;-144.30;99.84;86907.59;5112626;28;20652;-54
2023/12/10 00:46:57;;;;;;;22.13;12.17;;;;;;;-144.30;99.93;86905.59;5111950;28;20259;-53
2023/12/10 00:49:24;;;;;;;21.00;11.80;;;;;;;-144.30;100.00;86905.59;5112257;28;20686;-61
2023/12/10 00:51:51;;;;;;;25.00;13.80;;;;;;;-144.30;100.00;86891.69;5112021;28;20198;-60
2023/12/10 00:54:18;;;;;;;22.53;11.57;;;;;;;-144.30;100.00;86893.69;5112039;28;20690;-61
2023/12/10 00:56:46;;;;;;;24.43;11.97;;;;;;;-144.30;100.00;86857.88;5112089;28;20659;-54
2023/12/10 00:59:14;;;;;;;25.00;12.10;;;;;;;-144.30;100.00;86891.69;5112210;28;20258;-63
2023/12/10 01:01:41;;;;;;;22.60;12.37;;;;;;;-144.30;100.00;86891.69;5112094;28;20233;-55
2023/12/10 01:04:08;;;;;;;29.17;12.43;;;;;;;-144.30;100.00;86875.78;5111929;28;20240;-54
2023/12/10 01:06:35;;;;;;;25.00;12.53;;;;;;;-144.30;100.00;86828.03;5112030;28;20689;-54
2023/12/10 01:09:02;;;;;;;21.87;11.27;;;;;;;-144.30;100.00;86863.84;5112068;28;20230;-54
2023/12/10 01:11:29;;;;;;;27.67;12.83;;;;;;;-144.30;100.00;86891.69;5111680;28;20237;-55
2023/12/10 01:13:58;;;;;;;21.87;12.10;;;;;;;-144.30;100.00;86883.72;5111330;28;20293;-54
2023/12/10 01:16:25;;;;;;;27.07;12.80;;;;;;;-144.30;100.00;86891.69;5111721;28;20227;-55
2023/12/10 01:18:53;;;;;;;21.50;11.70;;;;;;;-144.30;100.00;86859.88;5111139;28;20228;-54
2023/12/10 01:21:20;;;;;;;23.23;12.17;;;;;;;-144.30;100.00;86901.63;5111167;28;20218;-60
2023/12/10 01:23:49;;;;;;;20.87;11.37;;;;;;;-144.30;100.00;86891.69;5110756;28;20259;-61
2023/12/10 01:26:16;;;;;;;25.97;12.00;;;;;;;-144.30;100.00;86891.69;5111241;28;20285;-61
2023/12/10 01:28:43;;;;;;;26.93;13.43;;;;;;;-144.30;100.00;86927.47;5111453;28;20198;-54
2023/12/10 01:31:12;;;;;;;27.43;14.43;;;;;;;-144.30;100.00;86879.75;5111409;28;20195;-54
2023/12/10 01:33:39;;;;;;;29.17;13.47;;;;;;;-144.30;100.00;86816.13;5111098;28;20194;-54
2023/12/10 01:36:06;;;;;;;21.13;12.53;;;;;;;-144.30;100.00;87064.72;5110740;28;20204;-54
2023/12/10 01:38:34;;;;;;;20.57;11.90;;;;;;;-144.30;100.00;86863.84;5111074;28;20287;-60
2023/12/10 01:41:01;;;;;;;23.03;12.13;;;;;;;-144.30;100.00;86855.88;5110627;28;20317;-60
2023/12/10 01:43:28;;;;;;;27.87;12.70;;;;;;;-144.30;100.00;86891.69;5110884;28;20271;-61
2023/12/10 01:45:56;;;;;;;26.87;12.63;;;;;;;-144.30;100.00;86869.81;5110576;28;20263;-54
2023/12/10 01:48:25;;;;;;;29.20;15.70;;;;;;;-144.30;100.00;86800.19;5110796;28;20195;-61
2023/12/10 01:50:53;;;;;;;22.37;11.77;;;;;;;-144.30;100.00;86919.53;5110571;28;20187;-54
2023/12/10 01:53:22;;;;;;;20.73;11.27;;;;;;;-144.30;100.00;86867.81;5110788;28;20290;-62
2023/12/10 01:55:49;;;;;;;23.20;11.70;;;;;;;-144.30;100.00;86865.84;5110555;28;20206;-59
2023/12/10 01:58:16;;;;;;;21.57;11.33;;;;;;;-144.30;100.00;86875.78;5110057;28;20195;-61
2023/12/10 02:00:44;;;;;;;19.60;11.17;;;;;;;-144.30;100.00;86883.72;5110780;28;20283;-61
2023/12/10 02:03:12;;;;;;;21.80;11.53;;;;;;;-144.30;100.00;86877.75;5110609;28;20286;-61
2023/12/10 02:05:40;;;;;;;22.27;11.13;;;;;;;-144.30;100.00;86895.66;5110828;28;20662;-54
2023/12/10 02:08:07;;;;;;;26.57;11.83;;;;;;;-144.30;100.00;86879.75;5110545;28;20202;-54
2023/12/10 02:10:34;;;;;;;21.17;11.40;;;;;;;-144.30;100.00;86903.63;5110680;28;20194;-60
2023/12/10 02:13:03;;;;;;;20.10;11.73;;;;;;;-144.30;100.00;86891.69;5110226;28;20194;-60
2023/12/10 02:15:31;;;;;;;20.10;11.10;;;;;;;-144.30;100.00;86907.59;5110378;28;20202;-61
2023/12/10 02:17:58;;;;;;;20.07;11.60;;;;;;;-144.30;99.92;86883.72;5110560;28;20578;-62
2023/12/10 02:20:25;;;;;;;26.37;11.03;;;;;;;-144.30;99.41;86873.78;5110190;28;20315;-53
2023/12/10 02:23:02;;;;;;;21.37;10.83;;;;;;;-144.30;99.20;86879.75;5110082;28;20237;-53
2023/12/10 02:25:32;;;;;;;20.60;11.33;;;;;;;-144.30;99.80;86919.53;5110242;28;20204;-53
2023/12/10 02:28:00;;;;;;;21.33;10.67;;;;;;;-144.30;99.56;86899.66;5109828;28;20194;-54
2023/12/10 02:30:27;;;;;;;17.97;10.90;;;;;;;-144.30;99.51;86887.72;5109779;28;20222;-54
2023/12/10 02:32:54;;;;;;;20.30;11.07;;;;;;;-144.30;99.33;86887.72;5109616;28;20198;-61
2023/12/10 02:35:21;;;;;;;19.97;10.57;;;;;;;-144.30;99.61;86863.84;5109700;28;20195;-60
2023/12/10 02:37:49;;;;;;;20.70;10.73;;;;;;;-144.30;99.16;86871.81;5110073;28;20281;-61
2023/12/10 02:40:17;;;;;;;19.70;10.73;;;;;;;-144.30;99.58;86935.44;5110128;28;20628;-61
2023/12/10 02:42:45;;;;;;;21.97;11.57;;;;;;;-144.30;99.82;86847.94;5110036;28;20200;-53
2023/12/10 02:45:12;;;;;;;20.23;10.97;;;;;;;-144.30;100.00;86881.75;5110336;28;20662;-53
2023/12/10 02:47:40;;;;;;;19.20;10.77;;;;;;;-144.30;100.00;86903.63;5109866;28;20251;-54
2023/12/10 02:50:08;;;;;;;20.70;10.97;;;;;;;-144.30;100.00;86915.56;5109897;28;20195;-53
2023/12/10 02:52:36;;;;;;;18.77;10.50;;;;;;;-144.30;100.00;86869.81;5110015;28;20191;-60
2023/12/10 02:55:04;;;;;;;20.83;10.77;;;;;;;-144.30;100.00;86863.84;5109871;28;20576;-54
2023/12/10 02:57:31;;;;;;;23.77;11.27;;;;;;;-144.30;100.00;86943.41;5109944;28;20748;-60
2023/12/10 03:00:00;;;;;;;20.83;10.23;;;;;;;-144.30;99.76;86893.69;5109972;28;20218;-61
2023/12/10 03:02:27;;;;;;;26.63;11.57;;;;;;;-144.30;99.49;86881.75;5109934;28;20556;-61
2023/12/10 03:04:54;;;;;;;26.70;11.07;;;;;;;-144.30;100.00;86871.81;5109625;28;20199;-53
2023/12/10 03:07:21;;;;;;;21.53;11.93;;;;;;;-144.30;100.00;86921.53;5109934;28;20595;-61
2023/12/10 03:09:48;;;;;;;22.13;11.67;;;;;;;-144.30;100.00;86917.53;5112088;28;20200;-62
2023/12/10 03:12:15;;;;;;;23.57;11.87;;;;;;;-144.30;100.00;86873.78;5114046;28;20286;-54
2023/12/10 03:14:42;;;;;;;24.27;10.73;;;;;;;-144.30;100.00;86889.69;5113768;28;20248;-55
2023/12/10 03:17:10;;;;;;;20.97;12.00;;;;;;;-144.30;100.00;86879.75;5113697;28;20198;-61
2023/12/10 03:19:38;;;;;;;25.93;12.33;;;;;;;-144.30;100.00;86903.63;5113698;27;20220;-61
2023/12/10 03:22:05;;;;;;;29.17;12.97;;;;;;;-144.30;100.00;86905.59;5113589;28;20195;-61
2023/12/10 03:24:32;;;;;;;25.07;12.60;;;;;;;-144.30;100.00;86885.72;5113635;28;20697;-55
2023/12/10 03:26:59;;;;;;;24.93;11.93;;;;;;;-144.30;100.00;86883.72;5113394;28;20191;-61
2023/12/10 03:29:26;;;;;;;24.47;11.93;;;;;;;-144.30;100.00;86881.75;5113668;28;20286;-62
2023/12/10 03:31:53;;;;;;;24.53;12.23;;;;;;;-144.30;100.00;86903.63;5113476;28;20339;-55
2023/12/10 03:34:21;;;;;;;25.67;11.87;;;;;;;-144.30;100.00;86891.69;5113955;28;20706;-54
2023/12/10 03:36:48;;;;;;;24.40;13.07;;;;;;;-144.30;100.00;86879.75;5113559;28;20238;-54
2023/12/10 03:39:15;;;;;;;26.47;12.87;;;;;;;-144.30;100.00;86820.09;5113365;28;20234;-54
2023/12/10 03:41:42;;;;;;;27.67;13.10;;;;;;;-144.30;100.00;86613.28;5113128;28;20254;-54
2023/12/10 03:44:09;;;;;;;31.17;12.73;;;;;;;-144.30;100.00;86883.72;5113166;28;20581;-61
2023/12/10 03:46:36;;;;;;;27.77;13.17;;;;;;;-144.30;100.00;86881.75;5113435;28;20244;-60
2023/12/10 03:49:03;;;;;;;31.13;13.27;;;;;;;-144.30;99.99;86875.78;5113111;28;20201;-60
2023/12/10 03:51:32;;;;;;;26.03;12.67;;;;;;;-144.30;99.05;86861.84;5113078;28;20654;-60
2023/12/10 03:53:59;;;;;;;25.83;12.67;;;;;;;-144.30;98.12;86855.88;5112962;28;20194;-60
2023/12/10 03:56:26;;;;;;;29.50;12.43;;;;;;;-144.30;97.60;86836.00;5112739;28;20198;-54
2023/12/10 03:58:53;;;;;;;23.53;11.50;;;;;;;-144.30;97.75;86881.75;5112987;28;20639;-54
2023/12/10 04:01:20;;;;;;;27.10;12.43;;;;;;;-144.30;98.34;86776.34;5113361;27;20786;-54
2023/12/10 04:03:47;;;;;;;22.97;11.93;;;;;;;-144.30;98.52;86859.88;5113063;28;20200;-55
2023/12/10 04:06:14;;;;;;;30.50;13.20;;;;;;;-144.30;98.52;86877.75;5112959;28;20311;-55
2023/12/10 04:08:42;;;;;;;25.97;12.10;;;;;;;-144.30;98.33;86885.72;5113273;28;20211;-61
2023/12/10 04:11:09;;;;;;;27.63;12.67;;;;;;;-144.30;98.70;86859.88;5112611;28;20222;-54
2023/12/10 04:13:36;;;;;;;26.70;12.00;;;;;;;-144.30;99.00;86851.91;5112999;28;20211;-54
2023/12/10 04:16:04;;;;;;;24.70;11.43;;;;;;;-144.30;98.30;86847.94;5112430;28;20250;-60
2023/12/10 04:18:31;;;;;;;22.00;12.17;;;;;;;-144.30;97.72;86863.84;5112602;28;20195;-54
2023/12/10 04:20:58;;;;;;;24.60;12.33;;;;;;;-144.30;97.92;86879.75;5111728;27;20272;-53
2023/12/10 04:23:25;;;;;;;23.37;11.73;;;;;;;-144.30;98.37;86867.81;5112850;28;20638;-55
2023/12/10 04:25:53;;;;;;;24.47;12.57;;;;;;;-144.30;98.16;86843.97;5112411;28;20200;-60
2023/12/10 04:28:20;;;;;;;25.30;12.70;;;;;;;-144.30;98.57;86889.69;5112558;28;20215;-60
2023/12/10 04:30:47;;;;;;;24.13;12.23;;;;;;;-144.30;99.67;86879.75;5112512;28;20198;-54
2023/12/10 04:33:15;;;;;;;31.10;13.93;;;;;;;-144.30;99.95;86863.84;5112163;28;20273;-55
2023/12/10 04:35:42;;;;;;;24.60;12.70;;;;;;;-144.30;98.95;86875.78;5112323;28;20205;-55
2023/12/10 04:38:09;;;;;;;25.77;12.30;;;;;;;-144.30;99.52;86883.72;5112340;27;20561;-55
2023/12/10 04:40:36;;;;;;;27.00;13.53;;;;;;;-144.30;99.60;86875.78;5112112;28;20234;-60
2023/12/10 04:43:04;;;;;;;28.50;13.83;;;;;;;-144.30;99.71;86889.69;5112308;28;20770;-53
2023/12/10 04:45:31;;;;;;;22.90;11.67;;;;;;;-144.30;99.56;86923.50;5112113;28;20747;-55
2023/12/10 04:47:58;;;;;;;23.87;11.50;;;;;;;-144.30;99.42;86899.66;5111999;28;20199;-54
2023/12/10 04:50:25;;;;;;;23.13;12.07;;;;;;;-144.30;99.68;86867.81;5112291;28;20674;-55
2023/12/10 04:52:52;;;;;;;24.57;12.73;;;;;;;-144.30;99.29;86893.69;5111848;28;20358;-54
2023/12/10 04:55:19;;;;;;;23.87;12.20;;;;;;;-144.30;99.47;86873.78;5111727;28;20224;-54
2023/12/10 04:57:46;;;;;;;22.73;11.70;;;;;;;-144.30;99.18;86903.63;5111981;28;20224;-54
2023/12/10 05:00:16;;;;;;;33.03;12.13;;;;;;;-144.30;99.68;86855.88;5111391;28;20234;-54
2023/12/10 05:02:43;;;;;;;28.13;14.73;;;;;;;-144.30;100.00;86891.69;5112313;28;20662;-61
2023/12/10 05:05:10;;;;;;;35.27;15.97;;;;;;;-144.30;100.00;86903.63;5111616;28;20248;-61
2023/12/10 05:07:37;;;;;;;35.83;15.97;;;;;;;-144.30;100.00;86887.72;5111574;28;20237;-61
2023/12/10 05:10:05;;;;;;;28.40;14.67;;;;;;;-144.30;100.00;86921.53;5111538;28;20242;-62
2023/12/10 05:12:32;;;;;;;38.43;16.63;;;;;;;-144.30;100.00;86893.69;5111697;28;20553;-54
2023/12/10 05:14:59;;;;;;;35.70;17.20;;;;;;;-144.30;100.00;86927.47;5111295;28;20196;-61
2023/12/10 05:17:28;;;;;;;47.33;18.43;;;;;;;-144.30;100.00;86909.59;5110338;28;20299;-54
2023/12/10 05:19:55;;;;;;;45.27;17.87;;;;;;;-144.30;100.00;86877.75;5111371;28;20239;-56
2023/12/10 05:22:22;;;;;;;46.20;17.77;;;;;;;-144.30;100.00;86883.72;5111264;28;20258;-55
2023/12/10 05:24:49;;;;;;;40.90;15.90;;;;;;;-144.30;100.00;86901.63;5109972;28;20206;-54
2023/12/10 05:27:16;;;;;;;38.93;17.40;;;;;;;-144.30;100.00;86881.75;5111078;28;20194;-54
2023/12/10 05:29:43;;;;;;;38.60;16.97;;;;;;;-144.30;100.00;86875.78;5111626;28;20204;-55
2023/12/10 05:32:10;;;;;;;38.17;15.90;;;;;;;-144.30;100.00;86859.88;5110589;28;20192;-61
2023/12/10 05:34:38;;;;;;;25.60;12.17;;;;;;;-144.30;100.00;86895.66;5102152;28;20206;-55
2023/12/10 05:37:05;;;;;;;31.27;13.83;;;;;;;-144.30;100.00;86871.81;5110708;28;20206;-62
2023/12/10 05:39:33;;;;;;;30.20;13.07;;;;;;;-144.30;100.00;86879.75;5110381;28;20202;-63
2023/12/10 05:42:00;;;;;;;29.07;13.20;;;;;;;-144.30;100.00;86869.81;5110119;28;20710;-61
2023/12/10 05:44:27;;;;;;;31.63;14.73;;;;;;;-144.30;100.00;86847.94;5112496;27;20207;-61
2023/12/10 05:46:54;;;;;;;35.07;14.47;;;;;;;-144.30;100.00;86885.72;5110748;28;20232;-61
2023/12/10 05:49:22;;;;;;;34.00;14.40;;;;;;;-144.30;100.00;86830.03;5109856;28;20207;-60
2023/12/10 05:51:51;;;;;;;36.67;14.53;;;;;;;-144.30;100.00;86879.75;5110744;28;20199;-60
2023/12/10 05:54:18;;;;;;;28.63;14.20;;;;;;;-144.30;100.00;86877.75;5110529;28;20674;-53
2023/12/10 05:56:45;;;;;;;33.63;13.20;;;;;;;-144.30;100.00;86863.84;5110844;28;20199;-53
2023/12/10 05:59:12;;;;;;;39.67;14.17;;;;;;;-144.30;100.00;86863.84;5110744;28;20275;-61
2023/12/10 06:01:39;;;;;;;35.93;14.90;;;;;;;-144.30;100.00;86891.69;5110287;28;20311;-61
2023/12/10 06:04:06;;;;;;;39.83;14.50;;;;;;;-144.30;100.00;86883.72;5109929;28;20187;-60
2023/12/10 06:06:33;;;;;;;39.73;14.40;;;;;;;-144.30;100.00;86903.63;5110369;28;20202;-61
2023/12/10 06:09:02;;;;;;;42.97;15.83;;;;;;;-144.30;100.00;86885.72;5110393;28;20190;-60
2023/12/10 06:11:29;;;;;;;37.77;14.87;;;;;;;-144.30;100.00;86901.63;5110922;28;20274;-62
2023/12/10 06:13:56;;;;;;;34.60;14.87;;;;;;;-144.30;100.00;86887.72;5110476;28;20667;-61
2023/12/10 06:16:23;;;;;;;43.80;15.27;;;;;;;-144.30;100.00;86899.66;5110523;28;20230;-62
2023/12/10 06:18:50;;;;;;;37.47;15.37;;;;;;;-144.30;100.00;86871.81;5109885;27;20206;-62
2023/12/10 06:21:17;;;;;;;35.13;15.87;;;;;;;-144.30;100.00;86879.75;5109843;28;20210;-61
2023/12/10 06:23:44;;;;;;;44.20;15.47;;;;;;;-144.30;100.00;86879.75;5110182;28;20247;-61
2023/12/10 06:26:12;;;;;;;43.37;14.83;;;;;;;-144.30;100.00;86859.88;5110122;28;20194;-61
2023/12/10 06:28:39;;;;;;;43.33;16.80;;;;;;;-144.30;100.00;86746.50;5109870;28;20228;-61
2023/12/10 06:31:07;;;;;;;41.40;15.47;;;;;;;-144.30;100.00;86845.94;5109945;28;20190;-60
2023/12/10 06:33:34;;;;;;;46.77;15.67;;;;;;;-144.30;100.00;86867.81;5109620;28;20205;-54
2023/12/10 06:36:01;;;;;;;49.77;16.83;;;;;;;-144.30;100.00;86895.66;5109890;28;20223;-60
2023/12/10 06:38:28;;;;;;;45.60;16.40;;;;;;;-144.30;100.00;86895.66;5109706;28;20194;-61
2023/12/10 06:40:55;;;;;;;54.07;17.40;;;;;;;-144.30;100.00;86871.81;5109859;28;20280;-60
2023/12/10 06:43:26;;;;;;;45.63;17.00;;;;;;;-144.30;100.00;86907.59;5110029;28;20206;-61
2023/12/10 06:45:53;;;;;;;54.80;18.00;;;;;;;-144.30;100.00;86931.47;5110146;28;20592;-60
2023/12/10 06:48:20;;;;;;;50.47;18.70;;;;;;;-144.30;100.00;86871.81;5109209;28;20190;-60
2023/12/10 06:50:47;;;;;;;51.57;19.03;;;;;;;-144.30;100.00;86897.66;5110161;28;20269;-59
2023/12/10 06:53:14;;;;;;;57.47;22.88;;;;;;;-144.30;100.00;86855.88;5109407;28;20508;-61
2023/12/10 06:55:41;;;;;;;62.00;25.40;;;;;;;-144.30;100.00;86849.91;5108913;28;20438;-61
2023/12/10 06:58:08;;;;;;;55.57;22.33;;;;;;;-144.30;100.00;86879.75;5098542;28;20499;-54
2023/12/10 07:00:36;;;;;;;61.93;22.17;;;;;;;-144.30;100.00;86883.72;5089720;28;20198;-54
2023/12/10 07:03:03;;;;;;;59.13;21.77;;;;;;;-144.30;100.00;86883.72;5089022;28;20724;-56
2023/12/10 07:05:30;;;;;;;54.07;20.77;;;;;;;-144.30;100.00;86855.88;5089547;28;20207;-54
2023/12/10 07:07:57;;;;;;;63.40;21.37;;;;;;;-144.30;100.00;86859.88;5089510;28;20197;-55
2023/12/10 07:10:24;;;;;;;57.93;20.53;;;;;;;-144.30;100.00;86851.91;5089416;28;20232;-56
2023/12/10 07:12:53;;;;;;;64.37;22.23;;;;;;;-144.30;100.00;86855.88;5089397;28;20237;-61
2023/12/10 07:15:20;;;;;;;62.53;19.97;;;;;;;-144.30;100.00;86865.84;5089326;28;20201;-61
2023/12/10 07:17:48;;;;;;;53.23;21.27;;;;;;;-144.30;100.00;86883.72;5088776;28;20273;-54
2023/12/10 07:20:15;;;;;;;68.53;23.33;;;;;;;-144.30;100.00;86865.84;5095285;28;20706;-54
2023/12/10 07:22:43;;;;;;;66.27;23.03;;;;;;;-144.30;100.00;86859.88;5109182;28;20213;-54
2023/12/10 07:25:10;;;;;;;65.10;23.63;;;;;;;-144.30;100.00;86839.97;5109482;28;20607;-53
2023/12/10 07:27:37;;;;;;;66.00;24.23;;;;;;;-144.30;100.00;86861.84;5109357;28;20203;-53
2023/12/10 07:30:05;;;;;;;65.73;24.23;;;;;;;-144.30;100.00;86836.00;5109749;28;20231;-53
2023/12/10 07:32:32;;;;;;;63.97;23.73;;;;;;;-144.30;100.00;86838.00;5108824;28;20200;-54
2023/12/10 07:35:00;;;;;;;73.90;25.50;;;;;;;-144.30;100.00;86877.75;5109643;28;20739;-52
2023/12/10 07:37:27;;;;;;;69.53;26.50;;;;;;;-144.30;100.00;86877.75;5107651;28;20225;-61
2023/12/10 07:39:54;;;;;;;63.77;25.20;;;;;;;-144.30;100.00;86849.91;5109076;28;20669;-61
2023/12/10 07:42:21;;;;;;;57.57;24.93;;;;;;;-144.30;100.00;86843.97;5109188;28;20668;-61
2023/12/10 07:44:48;;;;;;;62.17;25.80;;;;;;;-144.30;100.00;86861.84;5109559;28;20195;-61
2023/12/10 07:47:15;;;;;;;60.87;26.30;;;;;;;-144.30;100.00;86877.75;5109545;28;20272;-61
2023/12/10 07:49:42;;;;;;;70.80;24.73;;;;;;;-144.30;100.00;86839.97;5109674;28;20201;-54
2023/12/10 07:52:10;;;;;;;61.43;24.10;;;;;;;-144.30;100.00;86859.88;5109542;28;20642;-54
2023/12/10 07:54:38;;;;;;;59.13;23.70;;;;;;;-144.30;100.00;86895.66;5109647;28;20202;-53
2023/12/10 07:57:06;;;;;;;62.43;24.33;;;;;;;-144.30;100.00;86792.25;5110680;28;20247;-54
2023/12/10 07:59:33;;;;;;;63.47;25.00;;;;;;;-144.30;100.00;86824.06;5112636;28;20659;-55
2023/12/10 08:02:00;;;;;;;66.77;25.47;;;;;;;-144.30;100.00;86847.94;5112958;28;20221;-53
2023/12/10 08:04:27;;;;;;;63.77;25.43;;;;;;;-144.30;100.00;86843.97;5113007;28;20222;-54
2023/12/10 08:06:54;;;;;;;59.93;26.43;;;;;;;-144.30;100.00;86855.88;5112590;28;20738;-52
2023/12/10 08:09:23;;;;;;;59.60;25.10;;;;;;;-144.30;100.00;86812.13;5112111;28;20276;-53
2023/12/10 08:11:50;;;;;;;63.80;24.47;;;;;;;-144.30;99.88;86804.19;5112071;28;20417;-56
2023/12/10 08:14:17;;;;;;;56.80;23.40;;;;;;;-144.30;100.00;86808.16;5111721;28;20220;-55
2023/12/10 08:16:44;;;;;;;53.57;22.73;;;;;;;-144.30;99.74;86877.75;5112726;27;20189;-61
2023/12/10 08:19:11;;;;;;;52.50;21.27;;;;;;;-144.30;99.54;86857.88;5111878;28;20271;-61
2023/12/10 08:21:38;;;;;;;51.13;21.40;;;;;;;-144.30;98.92;86843.97;5112273;28;20215;-60
2023/12/10 08:24:06;;;;;;;54.93;21.27;;;;;;;-144.30;98.74;86853.91;5112032;28;20722;-61
2023/12/10 08:26:34;;;;;;;44.83;20.17;;;;;;;-144.30;98.91;86796.22;5112103;27;20220;-61
2023/12/10 08:29:01;;;;;;;48.10;20.73;;;;;;;-144.30;98.86;86822.09;5107118;28;20263;-62
2023/12/10 08:31:28;;;;;;;54.77;21.77;;;;;;;-144.30;98.99;86836.00;5111596;28;20701;-60
2023/12/10 08:33:55;;;;;;;56.15;26.02;;;;;;;-144.30;98.16;86828.03;5110512;28;20445;-61
2023/12/10 08:36:22;;;;;;;56.40;23.10;;;;;;;-144.30;97.81;86832.03;5111744;27;20203;-61
2023/12/10 08:38:49;;;;;;;49.17;22.23;;;;;;;-144.30;98.10;86814.13;5112139;27;20217;-62
2023/12/10 08:41:16;;;;;;;56.30;23.13;;;;;;;-144.30;97.77;86849.91;5111232;27;20279;-61
2023/12/10 08:43:45;;;;;;;53.43;21.93;;;;;;;-144.30;97.43;86847.94;5110544;28;20214;-60
2023/12/10 08:46:12;;;;;;;55.50;23.67;;;;;;;-144.30;97.68;86853.91;5111163;28;20627;-54
2023/12/10 08:48:42;;;;;;;57.87;24.00;;;;;;;-144.30;97.92;86832.03;5111701;27;20454;-61
2023/12/10 08:51:09;;;;;;;60.57;26.47;;;;;;;-144.30;97.85;86810.16;5111561;28;20198;-61
2023/12/10 08:53:36;;;;;;;62.20;31.30;;;;;;;-144.30;98.17;87100.53;5101675;28;20439;-57
2023/12/10 08:56:03;;;;;;;54.53;24.10;;;;;;;-144.30;97.74;86796.22;5110745;28;20727;-61
2023/12/10 08:58:31;;;;;;;57.58;28.75;;;;;;;-144.30;97.07;86788.28;5110524;28;20434;-60
2023/12/10 09:01:00;;;;;;;57.93;24.73;;;;;;;-144.30;96.44;86838.00;5111577;28;20221;-60
2023/12/10 09:03:27;;;;;;;57.97;24.87;;;;;;;-144.30;95.54;86766.41;5111321;28;20214;-60
2023/12/10 09:05:54;;;;;;;52.83;24.53;;;;;;;-144.30;96.03;86820.09;5111755;28;20277;-61
2023/12/10 09:08:21;;;;;;;52.53;24.30;;;;;;;-144.30;96.03;86808.16;5111435;27;20727;-53
2023/12/10 09:10:48;;;;;;;47.03;23.07;;;;;;;-144.30;95.72;86806.16;5110361;28;20194;-53
2023/12/10 09:13:15;;;;;;;52.33;21.10;;;;;;;-144.30;95.96;86784.28;5111685;28;20703;-53
2023/12/10 09:15:43;;;;;;;55.13;21.43;;;;;;;-144.30;95.19;86816.13;5111743;28;20198;-60
2023/12/10 09:18:12;;;;;;;49.03;21.30;;;;;;;-144.30;95.09;86804.19;5110958;28;20722;-52
2023/12/10 09:20:39;;;;;;;48.43;20.70;;;;;;;-144.30;95.33;86796.22;5111667;28;20205;-53
2023/12/10 09:23:06;;;;;;;48.53;20.27;;;;;;;-144.30;95.30;86794.25;5111420;27;20226;-55
2023/12/10 09:25:33;;;;;;;42.07;18.70;;;;;;;-144.30;95.79;86834.00;5111874;28;20195;-61
2023/12/10 09:28:00;;;;;;;54.93;22.40;;;;;;;-144.30;95.62;86800.19;5111333;28;20615;-61
2023/12/10 09:30:27;;;;;;;57.63;22.60;;;;;;;-144.30;95.78;86814.13;5111553;28;20198;-54
2023/12/10 09:32:54;;;;;;;62.67;23.67;;;;;;;-144.30;95.47;86810.16;5111342;28;20190;-61
2023/12/10 09:35:23;;;;;;;51.23;23.53;;;;;;;-144.30;95.76;86796.22;5110991;28;20202;-56
2023/12/10 09:37:50;;;;;;;53.17;23.40;;;;;;;-144.30;95.48;86804.19;5111138;27;20209;-53
2023/12/10 09:40:17;;;;;;;48.93;21.57;;;;;;;-144.30;95.65;86843.97;5111012;28;20190;-61
2023/12/10 09:42:44;;;;;;;50.60;22.23;;;;;;;-144.30;96.11;86794.25;5111511;28;20258;-61
2023/12/10 09:45:11;;;;;;;54.63;24.40;;;;;;;-144.30;95.86;86847.94;5111397;28;20210;-61
2023/12/10 09:47:40;;;;;;;57.33;25.33;;;;;;;-144.30;95.58;86806.16;5111233;28;20203;-61
2023/12/10 09:50:07;;;;;;;59.60;25.50;;;;;;;-144.30;95.33;86808.16;5110745;28;20194;-61
2023/12/10 09:52:36;;;;;;;64.47;25.23;;;;;;;-144.30;95.01;86822.09;5111326;28;20191;-61
2023/12/10 09:55:03;;;;;;;59.83;24.57;;;;;;;-144.30;95.00;86802.19;5110687;28;20248;-61
2023/12/10 09:57:30;;;;;;;66.07;25.27;;;;;;;-144.30;95.30;86804.19;5110929;28;20198;-61
2023/12/10 09:59:57;;;;;;;68.70;27.13;;;;;;;-144.30;95.59;86792.25;5111074;28;20635;-54
2023/12/10 10:02:32;;;;;;;64.13;26.40;;;;;;;-144.30;96.06;86756.44;5110553;28;20270;-52
2023/12/10 10:04:59;;;;;;;68.43;27.67;;;;;;;-144.30;96.37;86804.19;5110695;28;20200;-62
2023/12/10 10:07:26;;;;;;;65.77;27.57;;;;;;;-144.30;96.91;86818.09;5110947;28;20202;-52
2023/12/10 10:09:55;;;;;;;66.83;26.43;;;;;;;-144.30;96.44;86780.31;5110657;28;20251;-53
2023/12/10 10:12:22;;;;;;;73.63;26.87;;;;;;;-144.30;96.13;86808.16;5110403;28;20259;-54
2023/12/10 10:14:55;;;;;;;72.27;27.20;;;;;;;-144.30;96.21;86804.19;5110698;28;20198;-54
2023/12/10 10:17:33;;;;;;;68.37;26.73;;;;;;;-144.30;96.16;86808.16;5110442;28;20202;-61
2023/12/10 10:20:00;;;;;;;67.17;28.37;;;;;;;-144.30;95.93;86818.09;5110053;28;20587;-54
2023/12/10 10:22:28;;;;;;;67.97;25.87;;;;;;;-144.30;96.07;86808.16;5110441;28;20698;-53
2023/12/10 10:24:56;;;;;;;59.83;27.27;;;;;;;-144.30;96.12;86802.19;5110014;28;20666;-54
2023/12/10 10:27:24;;;;;;;65.77;26.73;;;;;;;-144.30;95.46;86808.16;5110092;28;20248;-54
2023/12/10 10:29:54;;;;;;;65.23;26.30;;;;;;;-144.30;94.70;86780.31;5110418;28;20199;-53
2023/12/10 10:32:21;;;;;;;71.43;27.30;;;;;;;-144.30;94.46;86754.47;5105910;28;20191;-53
2023/12/10 10:34:49;;;;;;;65.60;27.17;;;;;;;-144.30;94.72;86758.44;5109302;28;20247;-54
2023/12/10 10:37:17;;;;;;;64.50;28.03;;;;;;;-144.30;94.54;86702.75;5110115;28;20682;-53
2023/12/10 10:39:44;;;;;;;77.80;27.50;;;;;;;-144.30;94.02;86762.41;5109436;28;20223;-59
2023/12/10 10:42:13;;;;;;;62.03;25.23;;;;;;;-144.30;94.02;86778.31;5108858;28;20847;-61
2023/12/10 10:44:42;;;;;;;72.33;24.80;;;;;;;-144.30;93.34;86804.19;5110149;28;20266;-61
2023/12/10 10:47:10;;;;;;;71.17;27.37;;;;;;;-144.30;94.24;86756.44;5109160;28;20190;-61
2023/12/10 10:49:40;;;;;;;91.10;35.90;;;;;;;-144.30;94.91;86754.47;5109716;28;20195;-61
2023/12/10 10:52:11;;;;;;;82.60;35.03;;;;;;;-144.30;94.69;86780.31;5109840;28;20202;-55
2023/12/10 10:54:39;;;;;;;66.23;28.53;;;;;;;-144.30;94.75;86760.44;5109336;28;20226;-54
2023/12/10 10:57:06;;;;;;;69.77;29.40;;;;;;;-144.30;94.96;86780.31;5109946;28;20238;-54